Airfield :
LOGIN :

Register | Disclaimer

   EN    FR    IT 

 










Legend :    VFR   Marginal VFR   IFR   Intensive IFR   Very Intensive IFR
Visi :
Ceiling :
>= 8 km
>= 3000ft
5 to 8 km
1000 to 3000 ft
1500m to 5 km
500 to 1000 ft
800 to 1500m
200 to 500 ft
< 800m
< 200 ft
Symbols :   Thunderstorms  Fog  Heavy snow  Heavy precipitations  Wind > 20 kt
SIGMETs :     Misc.  Thunderstorms  Icing  Turbulence  Mountain Waves  Volcanic Ashes







- Airport Elevation : 989 ft
- IATA code : TRN


LIMF - Torino Caselle

CURRENT METAR :
  • 231420Z VRB02KT 9999 FEW040 26/18 Q1016

EXPIRED METARs :
  • 231350Z 06003KT 020V080 9999 FEW038 26/18 Q1016
  • 231320Z VRB02KT 9999 FEW030 27/19 Q1016
  • 231250Z 13004KT 080V180 9999 FEW030 27/19 Q1017
  • 231220Z VRB02KT 9999 FEW028 26/19 Q1017
  • 231150Z 04004KT 330V090 8000 NSC 25/19 Q1018

TAF TAF LIMF
Valid from the 23 at 12:00 until the 24 at 12:00 UTC


231100Z 2312/2412 VRB05KT CAVOK
No reported NOTAMs for that airfield.



MET'MAP, your aeronautical weather chart ! - Copyright ORBIFLY December 2007 - Disclaimer

ORBIFLY MET'MAP TEAM :

Programming & Development : Alexandra Zaïnal
Concept & Development : Baudouin d'Aumeries
Co-Development & Prog : Marc-Olivier Méhu
Technical & hardware support : Manuel Goepfert

Contact : metmap@orbifly.com




SOURCES & CREDITS :

   NOAA